createdAt,value
2022-10-01T00:02:06.900Z,16.67
2022-10-01T00:04:35.922Z,16.73
2022-10-01T00:07:02.570Z,18.00
2022-10-01T00:09:28.969Z,17.63
2022-10-01T00:11:55.701Z,15.75
2022-10-01T00:14:22.041Z,18.13
2022-10-01T00:16:48.616Z,14.25
2022-10-01T00:19:15.164Z,14.82
2022-10-01T00:21:42.157Z,14.48
2022-10-01T00:24:12.085Z,14.77
2022-10-01T00:26:38.805Z,14.60
2022-10-01T00:29:10.694Z,15.10
2022-10-01T00:31:37.665Z,14.65
2022-10-01T00:34:05.227Z,15.00
2022-10-01T00:36:33.469Z,13.65
2022-10-01T00:38:59.979Z,15.48
2022-10-01T00:41:31.355Z,13.25
2022-10-01T00:44:01.142Z,13.43
2022-10-01T00:46:42.325Z,15.23
2022-10-01T00:49:19.858Z,15.15
2022-10-01T00:51:56.759Z,13.93
2022-10-01T00:54:29.497Z,17.02
2022-10-01T00:56:58.367Z,16.85
2022-10-01T00:59:26.392Z,17.13
2022-10-01T01:01:52.877Z,16.50
2022-10-01T01:04:19.362Z,13.93
2022-10-01T01:06:50.427Z,15.45
2022-10-01T01:09:17.058Z,14.63
2022-10-01T01:11:55.708Z,16.33
2022-10-01T01:14:40.435Z,17.15
2022-10-01T01:17:13.470Z,18.30
2022-10-01T01:19:50.635Z,16.52
2022-10-01T01:22:21.717Z,21.48
2022-10-01T01:25:10.739Z,22.02
2022-10-01T01:28:17.197Z,19.05
2022-10-01T01:30:44.685Z,19.02
2022-10-01T01:33:16.809Z,19.27
2022-10-01T01:35:49.154Z,20.33
2022-10-01T01:38:21.702Z,18.55
2022-10-01T01:40:49.567Z,20.13
2022-10-01T01:43:20.570Z,16.42
2022-10-01T01:45:50.983Z,17.02
2022-10-01T01:48:17.345Z,15.48
2022-10-01T01:50:51.658Z,18.20
2022-10-01T01:53:19.425Z,18.52
2022-10-01T01:55:46.902Z,15.55
2022-10-01T01:58:13.268Z,15.90
2022-10-01T02:00:40.075Z,17.77
2022-10-01T02:03:07.477Z,18.17
2022-10-01T02:05:43.374Z,19.25
2022-10-01T02:08:26.345Z,17.15
2022-10-01T02:11:21.408Z,15.70
2022-10-01T02:14:02.010Z,18.33
2022-10-01T02:16:52.971Z,14.82
2022-10-01T02:19:27.472Z,19.98
2022-10-01T02:22:06.998Z,15.95
2022-10-01T02:24:44.246Z,13.80
2022-10-01T02:27:18.015Z,16.17
2022-10-01T02:29:45.435Z,15.85
2022-10-01T02:32:14.276Z,16.27
2022-10-01T02:34:41.820Z,18.00
2022-10-01T02:37:10.944Z,16.00
2022-10-01T02:39:39.605Z,19.23
2022-10-01T02:42:13.144Z,17.92
2022-10-01T02:44:42.691Z,17.48
2022-10-01T02:47:21.314Z,17.92
2022-10-01T02:49:49.195Z,20.45
2022-10-01T02:52:34.903Z,16.88
2022-10-01T02:55:05.902Z,16.42
2022-10-01T02:57:32.377Z,14.88
2022-10-01T03:00:09.171Z,16.88
2022-10-01T03:02:35.550Z,15.95
2022-10-01T03:05:02.154Z,13.98
2022-10-01T03:07:31.030Z,18.77
2022-10-01T03:09:57.515Z,16.90
2022-10-01T03:12:23.991Z,15.98
2022-10-01T03:14:51.105Z,16.00
2022-10-01T03:17:17.683Z,15.32
2022-10-01T03:19:44.298Z,14.38
2022-10-01T03:22:16.789Z,15.10
2022-10-01T03:24:43.130Z,15.05
2022-10-01T03:27:09.862Z,14.57
2022-10-01T03:29:36.324Z,17.50
2022-10-01T03:32:02.647Z,12.52
2022-10-01T03:34:29.008Z,15.68
2022-10-01T03:36:55.326Z,14.43
2022-10-01T03:39:21.641Z,12.35
2022-10-01T03:41:48.093Z,18.40
2022-10-01T03:44:14.808Z,18.77
2022-10-01T03:46:41.436Z,16.35
2022-10-01T03:49:07.720Z,14.38
2022-10-01T03:51:34.555Z,16.60
2022-10-01T03:54:01.187Z,14.35
2022-10-01T03:56:27.518Z,15.30
2022-10-01T03:58:53.828Z,13.73
2022-10-01T04:01:20.529Z,15.57
2022-10-01T04:03:47.336Z,15.77
2022-10-01T04:06:13.693Z,15.68
2022-10-01T04:08:40.466Z,14.18
2022-10-01T04:11:07.226Z,15.23
2022-10-01T04:13:34.466Z,18.48
2022-10-01T04:16:02.205Z,16.65
2022-10-01T04:18:28.877Z,16.95
2022-10-01T04:20:55.227Z,19.83
2022-10-01T04:23:21.785Z,17.83
2022-10-01T04:25:48.494Z,16.08
2022-10-01T04:28:15.053Z,18.67
2022-10-01T04:30:43.680Z,29.40
2022-10-01T04:33:13.774Z,17.42
2022-10-01T04:35:41.024Z,19.33
2022-10-01T04:38:11.819Z,17.92
2022-10-01T04:40:38.889Z,19.10
2022-10-01T04:43:06.512Z,20.33
2022-10-01T04:45:33.130Z,20.38
2022-10-01T04:47:59.572Z,18.77
2022-10-01T04:50:26.705Z,20.30
2022-10-01T04:52:54.135Z,19.63
2022-10-01T04:55:21.434Z,21.08
2022-10-01T04:57:48.135Z,18.58
2022-10-01T05:00:17.552Z,22.40
2022-10-01T05:02:48.968Z,21.05
2022-10-01T05:05:16.667Z,21.40
2022-10-01T05:07:43.118Z,23.17
2022-10-01T05:10:12.502Z,31.80
2022-10-01T05:12:39.177Z,22.02
2022-10-01T05:15:06.271Z,22.85
2022-10-01T05:17:32.831Z,18.80
2022-10-01T05:19:59.369Z,18.20
2022-10-01T05:22:25.818Z,20.95
2022-10-01T05:24:52.388Z,19.63
2022-10-01T05:27:19.317Z,20.20
2022-10-01T05:29:45.886Z,19.70
2022-10-01T05:32:12.565Z,18.38
2022-10-01T05:34:39.270Z,19.15
2022-10-01T05:37:06.222Z,16.50
2022-10-01T05:39:32.801Z,17.90
2022-10-01T05:42:03.939Z,15.90
2022-10-01T05:44:32.613Z,17.30
2022-10-01T05:46:58.973Z,20.83
2022-10-01T05:49:25.565Z,18.02
2022-10-01T05:51:51.955Z,16.10
2022-10-01T05:54:18.626Z,16.38
2022-10-01T05:56:45.601Z,17.10
2022-10-01T05:59:12.145Z,17.95
2022-10-01T06:01:38.583Z,15.35
2022-10-01T06:04:05.294Z,15.25
2022-10-01T06:06:31.855Z,13.50
2022-10-01T06:08:59.185Z,17.70
2022-10-01T06:11:25.528Z,18.27
2022-10-01T06:13:52.077Z,14.07
2022-10-01T06:16:18.726Z,15.00
2022-10-01T06:18:47.745Z,20.67
2022-10-01T06:21:14.490Z,16.95
2022-10-01T06:23:40.975Z,16.20
2022-10-01T06:26:07.372Z,14.48
2022-10-01T06:28:33.775Z,14.50
2022-10-01T06:31:04.231Z,18.23
2022-10-01T06:33:30.593Z,17.50
2022-10-01T06:35:57.949Z,16.75
2022-10-01T06:38:24.528Z,17.70
2022-10-01T06:40:56.835Z,21.60
2022-10-01T06:43:25.034Z,20.10
2022-10-01T06:45:51.970Z,17.67
2022-10-01T06:48:19.438Z,48.10
2022-10-01T06:50:48.262Z,23.13
2022-10-01T06:53:16.431Z,25.08
2022-10-01T06:55:43.452Z,28.75
2022-10-01T06:58:15.429Z,17.70
2022-10-01T07:00:42.946Z,20.55
2022-10-01T07:03:14.451Z,20.83
2022-10-01T07:05:41.061Z,21.33
2022-10-01T07:08:07.974Z,24.75
2022-10-01T07:10:34.463Z,23.98
2022-10-01T07:13:12.543Z,22.33
2022-10-01T07:15:39.873Z,23.77
2022-10-01T07:18:08.592Z,22.88
2022-10-01T07:20:35.593Z,23.33
2022-10-01T07:23:02.307Z,21.90
2022-10-01T07:25:29.393Z,22.02
2022-10-01T07:27:57.568Z,23.08
2022-10-01T07:30:25.050Z,24.02
2022-10-01T07:32:51.736Z,23.15
2022-10-01T07:35:18.310Z,21.85
2022-10-01T07:37:44.815Z,25.17
2022-10-01T07:40:12.429Z,22.88
2022-10-01T07:42:38.771Z,20.85
2022-10-01T07:45:05.703Z,25.35
2022-10-01T07:47:32.503Z,23.83
2022-10-01T07:49:59.112Z,50.83
2022-10-01T07:52:25.444Z,34.05
2022-10-01T07:54:51.742Z,24.80
2022-10-01T07:57:18.161Z,34.67
2022-10-01T07:59:44.425Z,49.95
2022-10-01T08:02:14.712Z,34.33
2022-10-01T08:04:41.248Z,30.33
2022-10-01T08:07:08.418Z,30.30
2022-10-01T08:09:35.383Z,24.20
2022-10-01T08:12:02.328Z,23.08
2022-10-01T08:14:28.929Z,26.75
2022-10-01T08:16:56.546Z,23.88
2022-10-01T08:19:23.034Z,33.65
2022-10-01T08:21:49.343Z,27.70
2022-10-01T08:24:16.477Z,29.55
2022-10-01T08:26:42.833Z,31.30
2022-10-01T08:29:11.641Z,32.00
2022-10-01T08:31:41.235Z,58.53
2022-10-01T08:34:07.952Z,69.93
2022-10-01T08:36:34.606Z,50.85
2022-10-01T08:39:01.067Z,35.35
2022-10-01T08:41:37.523Z,32.28
2022-10-01T08:44:05.966Z,30.23
2022-10-01T08:46:35.763Z,30.52
2022-10-01T08:49:26.724Z,21.67
2022-10-01T08:54:49.595Z,10.52
2022-10-01T08:57:40.743Z,14.05
2022-10-01T09:00:13.649Z,11.18
2022-10-01T09:02:42.303Z,4.85
2022-10-01T09:05:38.956Z,5.60
2022-10-01T09:08:25.722Z,5.45
2022-10-01T09:11:30.088Z,4.28
2022-10-01T09:14:08.159Z,3.63
2022-10-01T09:16:56.819Z,4.05
2022-10-01T09:19:58.544Z,19.83
2022-10-01T09:23:19.168Z,6.07
2022-10-01T09:25:48.842Z,3.60
2022-10-01T09:28:22.655Z,2.20
2022-10-01T09:31:18.553Z,3.38
2022-10-01T09:33:55.435Z,2.90
2022-10-01T09:36:40.014Z,2.70
2022-10-01T09:39:20.002Z,4.03
2022-10-01T09:41:46.612Z,3.43
2022-10-01T09:44:18.958Z,3.83
2022-10-01T09:46:47.206Z,6.15
2022-10-01T09:49:32.846Z,4.28
2022-10-01T09:52:14.151Z,4.80
2022-10-01T09:54:50.915Z,3.17
2022-10-01T09:57:25.781Z,7.13
2022-10-01T10:00:16.561Z,3.55
2022-10-01T10:02:49.969Z,4.97
2022-10-01T10:05:23.218Z,3.00
2022-10-01T10:07:54.060Z,3.03
2022-10-01T10:13:01.858Z,4.15
2022-10-01T10:15:28.885Z,5.40
2022-10-01T10:17:57.955Z,6.55
2022-10-01T10:20:38.213Z,4.25
2022-10-01T10:23:08.651Z,2.63
2022-10-01T10:25:35.253Z,4.53
2022-10-01T10:28:02.618Z,2.90
2022-10-01T10:30:30.101Z,2.75
2022-10-01T10:33:05.248Z,4.00
2022-10-01T10:35:31.839Z,4.13
2022-10-01T10:37:58.809Z,1.90
2022-10-01T10:40:29.740Z,5.85
2022-10-01T10:42:58.706Z,1.88
2022-10-01T10:45:37.659Z,2.90
2022-10-01T10:48:12.486Z,1.48
2022-10-01T10:50:42.792Z,1.55
2022-10-01T10:53:24.060Z,2.83
2022-10-01T10:55:58.584Z,1.88
2022-10-01T10:58:30.416Z,2.33
2022-10-01T11:01:01.425Z,2.05
2022-10-01T11:03:32.361Z,2.15
2022-10-01T11:08:29.848Z,2.47
2022-10-01T11:11:17.666Z,1.27
2022-10-01T11:14:02.468Z,2.63
2022-10-01T11:16:34.927Z,3.13
2022-10-01T11:19:22.180Z,1.20
2022-10-01T11:22:13.204Z,1.30
2022-10-01T11:27:29.628Z,1.80
2022-10-01T11:30:14.163Z,1.17
2022-10-01T11:32:55.525Z,2.45
2022-10-01T11:35:42.001Z,3.08
2022-10-01T11:38:26.710Z,1.83
2022-10-01T11:41:18.164Z,1.27
2022-10-01T11:43:56.923Z,3.20
2022-10-01T11:47:07.221Z,1.73
2022-10-01T11:49:33.752Z,1.40
2022-10-01T11:52:00.018Z,1.30
2022-10-01T11:54:30.114Z,3.13
2022-10-01T11:56:59.196Z,3.13
2022-10-01T11:59:36.198Z,1.70
2022-10-01T12:02:12.737Z,3.30
2022-10-01T12:04:44.480Z,1.95
2022-10-01T12:07:21.204Z,1.17
2022-10-01T12:10:20.346Z,1.33
2022-10-01T12:13:10.741Z,3.17
2022-10-01T12:15:42.484Z,1.30
2022-10-01T12:18:20.897Z,4.20
2022-10-01T12:20:56.455Z,1.20
2022-10-01T12:23:28.094Z,1.30
2022-10-01T12:26:05.551Z,2.03
2022-10-01T12:29:00.145Z,1.52
2022-10-01T12:31:51.400Z,2.30
2022-10-01T12:34:35.900Z,1.40
2022-10-01T12:37:02.239Z,1.25
2022-10-01T12:39:40.711Z,1.58
2022-10-01T12:42:28.514Z,2.42
2022-10-01T12:45:13.623Z,1.45
2022-10-01T12:48:18.761Z,3.28
2022-10-01T12:50:57.281Z,2.78
2022-10-01T12:53:33.536Z,1.77
2022-10-01T12:56:15.696Z,1.45
2022-10-01T12:59:12.314Z,1.52
2022-10-01T13:01:44.899Z,2.75
2022-10-01T13:04:29.497Z,2.05
2022-10-01T13:07:03.573Z,1.85
2022-10-01T13:09:38.242Z,2.40
2022-10-01T13:12:16.948Z,1.88
2022-10-01T13:14:44.693Z,1.33
2022-10-01T13:17:19.623Z,5.32
2022-10-01T13:19:52.431Z,1.55
2022-10-01T13:22:49.283Z,1.10
2022-10-01T13:25:30.658Z,5.60
2022-10-01T13:28:23.994Z,1.55
2022-10-01T13:31:00.286Z,1.38
2022-10-01T13:33:30.167Z,1.05
2022-10-01T13:36:02.265Z,0.70
2022-10-01T13:38:30.205Z,5.88
2022-10-01T13:40:59.162Z,1.63
2022-10-01T13:43:25.792Z,0.80
2022-10-01T13:45:55.079Z,2.47
2022-10-01T13:48:28.571Z,0.77
2022-10-01T13:51:10.074Z,1.15
2022-10-01T13:53:45.907Z,3.63
2022-10-01T13:56:26.021Z,0.70
2022-10-01T13:58:52.377Z,0.60
2022-10-01T14:01:24.324Z,2.63
2022-10-01T14:04:18.713Z,1.13
2022-10-01T14:06:53.612Z,0.70
2022-10-01T14:09:27.564Z,1.70
2022-10-01T14:12:02.076Z,0.88
2022-10-01T14:14:40.733Z,0.63
2022-10-01T14:17:09.815Z,0.70
2022-10-01T14:19:36.371Z,1.05
2022-10-01T14:22:32.374Z,2.55
2022-10-01T14:25:22.020Z,1.83
2022-10-01T14:28:17.892Z,1.15
2022-10-01T14:30:58.749Z,1.30
2022-10-01T14:34:15.912Z,1.60
2022-10-01T14:36:45.647Z,0.60
2022-10-01T14:39:17.095Z,1.60
2022-10-01T14:41:44.099Z,1.40
2022-10-01T14:44:40.425Z,0.70
2022-10-01T14:47:26.427Z,0.98
2022-10-01T14:49:54.792Z,6.22
2022-10-01T14:52:27.967Z,0.68
2022-10-01T14:55:02.607Z,0.80
2022-10-01T14:57:39.737Z,1.65
2022-10-01T15:00:13.459Z,2.70
2022-10-01T15:02:45.717Z,1.35
2022-10-01T15:05:21.021Z,2.40
2022-10-01T15:07:47.474Z,2.60
2022-10-01T15:10:18.495Z,1.42
2022-10-01T15:12:46.435Z,1.50
2022-10-01T15:15:40.333Z,1.60
2022-10-01T15:18:07.765Z,2.47
2022-10-01T15:20:35.014Z,0.95
2022-10-01T15:23:04.774Z,1.00
2022-10-01T15:25:32.359Z,0.83
2022-10-01T15:27:58.786Z,0.70
2022-10-01T15:30:27.662Z,6.47
2022-10-01T15:32:54.410Z,0.93
2022-10-01T15:35:22.978Z,2.17
2022-10-01T15:37:51.077Z,1.73
2022-10-01T15:40:30.047Z,1.77
2022-10-01T15:43:08.539Z,1.75
2022-10-01T15:45:35.790Z,0.85
2022-10-01T15:48:02.111Z,0.82
2022-10-01T15:50:34.572Z,6.85
2022-10-01T15:53:07.429Z,1.15
2022-10-01T15:55:39.534Z,1.25
2022-10-01T15:58:21.033Z,1.85
2022-10-01T16:00:47.414Z,1.10
2022-10-01T16:04:01.948Z,4.22
2022-10-01T16:06:35.910Z,0.80
2022-10-01T16:09:15.774Z,2.40
2022-10-01T16:12:04.015Z,0.93
2022-10-01T16:14:43.862Z,0.80
2022-10-01T16:17:19.013Z,3.20
2022-10-01T16:19:51.126Z,1.58
2022-10-01T16:22:17.580Z,1.23
2022-10-01T16:24:48.502Z,2.25
2022-10-01T16:27:25.952Z,1.05
2022-10-01T16:29:55.646Z,1.13
2022-10-01T16:32:22.751Z,1.17
2022-10-01T16:34:49.349Z,1.17
2022-10-01T16:37:16.804Z,0.98
2022-10-01T16:39:43.215Z,2.78
2022-10-01T16:42:24.295Z,3.30
2022-10-01T16:44:51.216Z,1.23
2022-10-01T16:47:17.522Z,1.88
2022-10-01T16:49:52.000Z,0.82
2022-10-01T16:52:18.391Z,1.02
2022-10-01T16:54:44.909Z,1.52
2022-10-01T16:57:11.456Z,1.38
2022-10-01T16:59:37.900Z,1.00
2022-10-01T17:02:04.693Z,1.10
2022-10-01T17:04:34.187Z,1.38
2022-10-01T17:07:01.155Z,2.00
2022-10-01T17:09:27.776Z,1.77
2022-10-01T17:11:55.474Z,1.48
2022-10-01T17:14:22.357Z,1.40
2022-10-01T17:16:49.400Z,2.15
2022-10-01T17:19:17.128Z,1.30
2022-10-01T17:21:43.796Z,2.15
2022-10-01T17:24:11.748Z,2.15
2022-10-01T17:26:40.400Z,2.13
2022-10-01T17:29:10.100Z,1.98
2022-10-01T17:31:38.237Z,2.30
2022-10-01T17:34:05.101Z,3.25
2022-10-01T17:36:31.567Z,1.77
2022-10-01T17:38:58.203Z,1.33
2022-10-01T17:41:24.807Z,1.33
2022-10-01T17:43:51.203Z,1.33
2022-10-01T17:46:17.771Z,1.25
2022-10-01T17:48:44.242Z,1.70
2022-10-01T17:51:11.327Z,2.13
2022-10-01T17:56:19.265Z,2.65
2022-10-01T17:58:46.381Z,1.83
2022-10-01T18:01:19.009Z,5.72
2022-10-01T18:03:45.922Z,3.13
2022-10-01T18:06:12.317Z,2.42
2022-10-01T18:08:54.634Z,4.20
2022-10-01T18:11:22.239Z,1.75
2022-10-01T18:13:50.647Z,1.65
2022-10-01T18:16:19.234Z,2.50
2022-10-01T18:21:32.965Z,2.33
2022-10-01T18:24:03.980Z,1.75
2022-10-01T18:26:31.445Z,3.20
2022-10-01T18:28:58.041Z,2.05
2022-10-01T18:31:26.528Z,3.58
2022-10-01T18:33:57.309Z,1.58
2022-10-01T18:39:05.020Z,1.40
2022-10-01T18:41:36.663Z,1.25
2022-10-01T18:44:04.035Z,1.75
2022-10-01T18:46:36.782Z,1.50
2022-10-01T18:49:42.210Z,2.35
2022-10-01T18:52:33.097Z,1.70
2022-10-01T18:58:26.511Z,3.25
2022-10-01T19:01:25.292Z,2.22
2022-10-01T19:04:21.772Z,3.78
2022-10-01T19:07:18.633Z,4.75
2022-10-01T19:10:09.882Z,2.92
2022-10-01T19:12:48.917Z,4.22
2022-10-01T19:15:39.679Z,7.40
2022-10-01T19:20:48.988Z,11.95
2022-10-01T19:23:40.111Z,6.80
2022-10-01T19:26:15.731Z,6.88
2022-10-01T19:29:12.261Z,6.68
2022-10-01T19:32:02.239Z,7.88
2022-10-01T19:34:41.129Z,9.53
2022-10-01T19:37:27.685Z,7.65
2022-10-01T19:39:58.369Z,6.38
2022-10-01T19:42:31.296Z,8.20
2022-10-01T19:45:02.833Z,9.23
2022-10-01T19:47:29.337Z,8.88
2022-10-01T19:49:59.616Z,9.10
2022-10-01T19:52:28.643Z,7.75
2022-10-01T19:54:57.647Z,10.23
2022-10-01T19:57:29.239Z,11.18
2022-10-01T19:59:58.320Z,13.45
2022-10-01T20:02:43.042Z,8.25
2022-10-01T20:05:16.022Z,21.63
2022-10-01T20:08:05.255Z,8.05
2022-10-01T20:10:41.399Z,7.60
2022-10-01T20:13:26.454Z,5.40
2022-10-01T20:16:18.179Z,5.70
2022-10-01T20:18:54.426Z,5.32
2022-10-01T20:21:46.451Z,5.15
2022-10-01T20:24:19.130Z,7.03
2022-10-01T20:26:55.376Z,6.65
2022-10-01T20:29:53.083Z,5.00
2022-10-01T20:32:29.803Z,4.22
2022-10-01T20:35:23.669Z,5.18
2022-10-01T20:37:58.826Z,5.68
2022-10-01T20:40:30.147Z,7.18
2022-10-01T20:43:12.762Z,8.00
2022-10-01T20:45:40.873Z,6.25
2022-10-01T20:48:14.135Z,3.13
2022-10-01T20:50:47.862Z,5.00
2022-10-01T20:53:34.055Z,4.15
2022-10-01T20:56:11.974Z,3.00
2022-10-01T20:58:46.165Z,4.05
2022-10-01T21:01:21.055Z,3.90
2022-10-01T21:04:03.440Z,5.05
2022-10-01T21:06:35.659Z,6.75
2022-10-01T21:09:15.022Z,5.97
2022-10-01T21:11:45.848Z,8.00
2022-10-01T21:17:12.875Z,7.15
2022-10-01T21:20:13.042Z,6.63
2022-10-01T21:22:55.042Z,5.30
2022-10-01T21:26:01.902Z,5.35
2022-10-01T21:28:46.440Z,4.90
2022-10-01T21:31:44.202Z,4.05
2022-10-01T21:34:29.565Z,3.50
2022-10-01T21:37:04.874Z,2.42
2022-10-01T21:39:59.380Z,4.75
2022-10-01T21:42:28.849Z,7.38
2022-10-01T21:45:10.360Z,3.22
2022-10-01T21:47:52.817Z,4.30
2022-10-01T21:50:28.034Z,4.28
2022-10-01T21:53:15.241Z,2.25
2022-10-01T21:55:47.897Z,5.18
2022-10-01T21:58:32.891Z,2.92
2022-10-01T22:01:13.340Z,3.00
2022-10-01T22:03:57.541Z,4.93
2022-10-01T22:06:52.050Z,3.55
2022-10-01T22:09:43.302Z,4.25
2022-10-01T22:12:11.169Z,6.30
2022-10-01T22:14:39.443Z,4.38
2022-10-01T22:17:14.719Z,5.00
2022-10-01T22:19:45.809Z,5.03
2022-10-01T22:22:18.240Z,5.05
2022-10-01T22:24:53.065Z,5.22
2022-10-01T22:27:36.685Z,3.88
2022-10-01T22:30:14.746Z,6.22
2022-10-01T22:32:47.221Z,7.05
2022-10-01T22:35:22.028Z,7.95
2022-10-01T22:37:55.679Z,4.95
2022-10-01T22:40:31.677Z,5.47
2022-10-01T22:43:05.661Z,5.15
2022-10-01T22:45:51.310Z,5.07
2022-10-01T22:48:24.207Z,5.68
2022-10-01T22:51:19.113Z,5.63
2022-10-01T22:54:00.305Z,6.70
2022-10-01T22:56:37.805Z,5.57
2022-10-01T22:59:07.292Z,5.85
2022-10-01T23:02:02.837Z,5.07
2022-10-01T23:04:46.575Z,5.78
2022-10-01T23:07:31.800Z,6.13
2022-10-01T23:10:12.097Z,5.35
2022-10-01T23:13:03.861Z,6.63
2022-10-01T23:15:54.477Z,6.15
2022-10-01T23:18:31.666Z,5.47
2022-10-01T23:21:15.718Z,3.92
2022-10-01T23:23:51.533Z,8.13
2022-10-01T23:26:26.944Z,6.85
2022-10-01T23:29:20.027Z,9.88
2022-10-01T23:31:58.859Z,9.40
2022-10-01T23:34:46.808Z,7.57
2022-10-01T23:37:22.565Z,9.20
2022-10-01T23:40:02.716Z,10.43
2022-10-01T23:42:53.071Z,12.20
2022-10-01T23:45:33.908Z,7.75
2022-10-01T23:50:30.302Z,6.45
2022-10-01T23:53:26.116Z,6.97
2022-10-01T23:56:12.830Z,7.63
2022-10-01T23:58:48.723Z,5.55
